sensor_id;sensor_type;location;lat;lon;timestamp;temperature;humidity
24664;DHT22;12791;50.992;13.788;2023-05-24T00:00:31;12.70;99.90
24664;DHT22;12791;50.992;13.788;2023-05-24T00:02:58;12.70;99.90
24664;DHT22;12791;50.992;13.788;2023-05-24T00:05:26;12.60;99.90
24664;DHT22;12791;50.992;13.788;2023-05-24T00:07:55;12.60;99.90
24664;DHT22;12791;50.992;13.788;2023-05-24T00:10:22;12.60;99.90
24664;DHT22;12791;50.992;13.788;2023-05-24T00:12:49;12.60;99.90
24664;DHT22;12791;50.992;13.788;2023-05-24T00:15:15;12.60;99.90
24664;DHT22;12791;50.992;13.788;2023-05-24T00:17:42;12.60;99.90
24664;DHT22;12791;50.992;13.788;2023-05-24T00:20:09;12.50;99.90
24664;DHT22;12791;50.992;13.788;2023-05-24T00:22:39;12.50;99.90
24664;DHT22;12791;50.992;13.788;2023-05-24T00:25:07;12.50;99.90
24664;DHT22;12791;50.992;13.788;2023-05-24T00:27:33;12.50;99.90
24664;DHT22;12791;50.992;13.788;2023-05-24T00:30:01;12.40;99.90
24664;DHT22;12791;50.992;13.788;2023-05-24T00:32:28;12.40;99.90
24664;DHT22;12791;50.992;13.788;2023-05-24T00:34:55;12.40;99.90
24664;DHT22;12791;50.992;13.788;2023-05-24T00:37:21;12.40;99.90
24664;DHT22;12791;50.992;13.788;2023-05-24T00:39:49;12.40;99.90
24664;DHT22;12791;50.992;13.788;2023-05-24T00:42:16;12.30;99.90
24664;DHT22;12791;50.992;13.788;2023-05-24T00:44:42;12.20;99.90
24664;DHT22;12791;50.992;13.788;2023-05-24T00:47:09;12.20;99.90
24664;DHT22;12791;50.992;13.788;2023-05-24T00:49:35;12.20;99.90
24664;DHT22;12791;50.992;13.788;2023-05-24T00:52:02;12.20;99.90
24664;DHT22;12791;50.992;13.788;2023-05-24T00:54:29;12.10;99.90
24664;DHT22;12791;50.992;13.788;2023-05-24T00:56:57;12.10;99.90
24664;DHT22;12791;50.992;13.788;2023-05-24T00:59:24;12.10;99.90
24664;DHT22;12791;50.992;13.788;2023-05-24T01:01:51;12.10;99.90
24664;DHT22;12791;50.992;13.788;2023-05-24T01:04:19;12.10;99.90
24664;DHT22;12791;50.992;13.788;2023-05-24T01:06:55;12.10;99.90
24664;DHT22;12791;50.992;13.788;2023-05-24T01:09:29;12.10;99.90
24664;DHT22;12791;50.992;13.788;2023-05-24T01:12:10;12.10;99.90
24664;DHT22;12791;50.992;13.788;2023-05-24T01:14:46;12.10;99.90
24664;DHT22;12791;50.992;13.788;2023-05-24T01:17:20;12.10;99.90
24664;DHT22;12791;50.992;13.788;2023-05-24T01:19:51;12.10;99.90
24664;DHT22;12791;50.992;13.788;2023-05-24T01:22:42;12.10;99.90
24664;DHT22;12791;50.992;13.788;2023-05-24T01:25:20;12.10;99.90
24664;DHT22;12791;50.992;13.788;2023-05-24T01:27:50;12.10;99.90
24664;DHT22;12791;50.992;13.788;2023-05-24T01:30:17;12.10;99.90
24664;DHT22;12791;50.992;13.788;2023-05-24T01:32:44;12.00;99.90
24664;DHT22;12791;50.992;13.788;2023-05-24T01:35:10;12.00;99.90
24664;DHT22;12791;50.992;13.788;2023-05-24T01:37:37;12.00;99.90
24664;DHT22;12791;50.992;13.788;2023-05-24T01:40:05;12.00;99.90
24664;DHT22;12791;50.992;13.788;2023-05-24T01:42:35;12.00;99.90
24664;DHT22;12791;50.992;13.788;2023-05-24T01:45:13;12.00;99.90
24664;DHT22;12791;50.992;13.788;2023-05-24T01:47:50;12.00;99.90
24664;DHT22;12791;50.992;13.788;2023-05-24T01:50:24;11.90;99.90
24664;DHT22;12791;50.992;13.788;2023-05-24T01:52:51;11.90;99.90
24664;DHT22;12791;50.992;13.788;2023-05-24T01:55:19;11.90;99.90
24664;DHT22;12791;50.992;13.788;2023-05-24T01:57:49;11.80;99.90
24664;DHT22;12791;50.992;13.788;2023-05-24T02:00:18;11.80;99.90
24664;DHT22;12791;50.992;13.788;2023-05-24T02:02:46;11.80;99.90
24664;DHT22;12791;50.992;13.788;2023-05-24T02:05:13;11.70;99.90
24664;DHT22;12791;50.992;13.788;2023-05-24T02:07:39;11.70;99.90
24664;DHT22;12791;50.992;13.788;2023-05-24T02:10:07;11.70;99.90
24664;DHT22;12791;50.992;13.788;2023-05-24T02:12:34;11.60;99.90
24664;DHT22;12791;50.992;13.788;2023-05-24T02:15:01;11.60;99.90
24664;DHT22;12791;50.992;13.788;2023-05-24T02:17:29;11.60;99.90
24664;DHT22;12791;50.992;13.788;2023-05-24T02:19:57;11.60;99.90
24664;DHT22;12791;50.992;13.788;2023-05-24T02:22:24;11.60;99.90
24664;DHT22;12791;50.992;13.788;2023-05-24T02:24:50;11.60;99.90
24664;DHT22;12791;50.992;13.788;2023-05-24T02:27:17;11.60;99.90
24664;DHT22;12791;50.992;13.788;2023-05-24T02:29:44;11.60;99.90
24664;DHT22;12791;50.992;13.788;2023-05-24T02:32:12;11.60;99.90
24664;DHT22;12791;50.992;13.788;2023-05-24T02:34:40;11.60;99.90
24664;DHT22;12791;50.992;13.788;2023-05-24T02:37:08;11.60;99.90
24664;DHT22;12791;50.992;13.788;2023-05-24T02:39:38;11.50;99.90
24664;DHT22;12791;50.992;13.788;2023-05-24T02:42:05;11.50;99.90
24664;DHT22;12791;50.992;13.788;2023-05-24T02:44:33;11.40;99.90
24664;DHT22;12791;50.992;13.788;2023-05-24T02:46:59;11.40;99.90
24664;DHT22;12791;50.992;13.788;2023-05-24T02:49:26;11.40;99.90
24664;DHT22;12791;50.992;13.788;2023-05-24T02:51:54;11.60;99.90
24664;DHT22;12791;50.992;13.788;2023-05-24T02:54:21;11.40;99.90
24664;DHT22;12791;50.992;13.788;2023-05-24T02:56:47;11.40;99.90
24664;DHT22;12791;50.992;13.788;2023-05-24T02:59:14;11.40;99.90
24664;DHT22;12791;50.992;13.788;2023-05-24T03:01:42;11.40;99.90
24664;DHT22;12791;50.992;13.788;2023-05-24T03:04:08;11.40;99.90
24664;DHT22;12791;50.992;13.788;2023-05-24T03:06:35;11.40;99.90
24664;DHT22;12791;50.992;13.788;2023-05-24T03:09:03;11.50;99.90
24664;DHT22;12791;50.992;13.788;2023-05-24T03:11:30;11.50;99.90
24664;DHT22;12791;50.992;13.788;2023-05-24T03:13:56;11.50;99.90
24664;DHT22;12791;50.992;13.788;2023-05-24T03:16:23;11.50;99.90
24664;DHT22;12791;50.992;13.788;2023-05-24T03:18:50;11.50;99.90
24664;DHT22;12791;50.992;13.788;2023-05-24T03:21:19;11.50;99.90
24664;DHT22;12791;50.992;13.788;2023-05-24T03:23:47;11.50;99.90
24664;DHT22;12791;50.992;13.788;2023-05-24T03:26:15;11.50;99.90
24664;DHT22;12791;50.992;13.788;2023-05-24T03:28:43;11.50;99.90
24664;DHT22;12791;50.992;13.788;2023-05-24T03:31:09;11.50;99.90
24664;DHT22;12791;50.992;13.788;2023-05-24T03:33:36;11.50;99.90
24664;DHT22;12791;50.992;13.788;2023-05-24T03:36:03;11.40;99.90
24664;DHT22;12791;50.992;13.788;2023-05-24T03:38:30;11.40;99.90
24664;DHT22;12791;50.992;13.788;2023-05-24T03:40:58;11.40;99.90
24664;DHT22;12791;50.992;13.788;2023-05-24T03:43:26;11.30;99.90
24664;DHT22;12791;50.992;13.788;2023-05-24T03:45:52;11.30;99.90
24664;DHT22;12791;50.992;13.788;2023-05-24T03:48:19;11.30;99.90
24664;DHT22;12791;50.992;13.788;2023-05-24T03:50:45;11.30;99.90
24664;DHT22;12791;50.992;13.788;2023-05-24T03:53:12;11.30;99.90
24664;DHT22;12791;50.992;13.788;2023-05-24T03:55:39;11.20;99.90
24664;DHT22;12791;50.992;13.788;2023-05-24T03:58:05;11.20;99.90
24664;DHT22;12791;50.992;13.788;2023-05-24T04:00:33;11.20;99.90
24664;DHT22;12791;50.992;13.788;2023-05-24T04:03:00;11.20;99.90
24664;DHT22;12791;50.992;13.788;2023-05-24T04:05:27;11.20;99.90
24664;DHT22;12791;50.992;13.788;2023-05-24T04:07:54;11.30;99.90
24664;DHT22;12791;50.992;13.788;2023-05-24T04:10:20;11.20;99.90
24664;DHT22;12791;50.992;13.788;2023-05-24T04:12:47;11.30;99.90
24664;DHT22;12791;50.992;13.788;2023-05-24T04:15:14;11.30;99.90
24664;DHT22;12791;50.992;13.788;2023-05-24T04:17:43;11.30;99.90
24664;DHT22;12791;50.992;13.788;2023-05-24T04:20:10;11.30;99.90
24664;DHT22;12791;50.992;13.788;2023-05-24T04:22:37;11.30;99.90
24664;DHT22;12791;50.992;13.788;2023-05-24T04:25:05;11.30;99.90
24664;DHT22;12791;50.992;13.788;2023-05-24T04:27:32;11.20;99.90
24664;DHT22;12791;50.992;13.788;2023-05-24T04:30:00;11.20;99.90
24664;DHT22;12791;50.992;13.788;2023-05-24T04:32:27;11.20;99.90
24664;DHT22;12791;50.992;13.788;2023-05-24T04:34:56;11.10;99.90
24664;DHT22;12791;50.992;13.788;2023-05-24T04:37:22;11.20;99.90
24664;DHT22;12791;50.992;13.788;2023-05-24T04:39:49;11.20;99.90
24664;DHT22;12791;50.992;13.788;2023-05-24T04:42:16;11.20;99.90
24664;DHT22;12791;50.992;13.788;2023-05-24T04:44:42;11.20;99.90
24664;DHT22;12791;50.992;13.788;2023-05-24T04:47:09;11.20;99.90
24664;DHT22;12791;50.992;13.788;2023-05-24T04:49:37;11.20;99.90
24664;DHT22;12791;50.992;13.788;2023-05-24T04:52:06;11.30;99.90
24664;DHT22;12791;50.992;13.788;2023-05-24T04:54:32;11.30;99.90
24664;DHT22;12791;50.992;13.788;2023-05-24T04:56:59;11.30;99.90
24664;DHT22;12791;50.992;13.788;2023-05-24T04:59:26;11.30;99.90
24664;DHT22;12791;50.992;13.788;2023-05-24T05:01:52;11.30;99.90
24664;DHT22;12791;50.992;13.788;2023-05-24T05:04:19;11.30;99.90
24664;DHT22;12791;50.992;13.788;2023-05-24T05:06:46;11.30;99.90
24664;DHT22;12791;50.992;13.788;2023-05-24T05:09:14;11.40;99.90
24664;DHT22;12791;50.992;13.788;2023-05-24T05:11:41;11.40;99.90
24664;DHT22;12791;50.992;13.788;2023-05-24T05:14:08;11.50;99.90
24664;DHT22;12791;50.992;13.788;2023-05-24T05:16:35;11.50;99.90
24664;DHT22;12791;50.992;13.788;2023-05-24T05:19:02;11.50;99.90
24664;DHT22;12791;50.992;13.788;2023-05-24T05:21:30;11.60;99.90
24664;DHT22;12791;50.992;13.788;2023-05-24T05:23:58;11.70;99.90
24664;DHT22;12791;50.992;13.788;2023-05-24T05:26:26;11.60;99.90
24664;DHT22;12791;50.992;13.788;2023-05-24T05:28:52;11.70;99.90
24664;DHT22;12791;50.992;13.788;2023-05-24T05:31:20;11.60;99.90
24664;DHT22;12791;50.992;13.788;2023-05-24T05:33:46;11.70;99.90
24664;DHT22;12791;50.992;13.788;2023-05-24T05:36:13;11.70;99.90
24664;DHT22;12791;50.992;13.788;2023-05-24T05:38:40;11.70;99.90
24664;DHT22;12791;50.992;13.788;2023-05-24T05:41:06;11.70;99.90
24664;DHT22;12791;50.992;13.788;2023-05-24T05:43:34;11.70;99.90
24664;DHT22;12791;50.992;13.788;2023-05-24T05:46:01;11.70;99.90
24664;DHT22;12791;50.992;13.788;2023-05-24T05:48:28;11.70;99.90
24664;DHT22;12791;50.992;13.788;2023-05-24T05:50:54;11.70;99.90
24664;DHT22;12791;50.992;13.788;2023-05-24T05:53:21;11.70;99.90
24664;DHT22;12791;50.992;13.788;2023-05-24T05:55:48;11.70;99.90
24664;DHT22;12791;50.992;13.788;2023-05-24T05:58:15;11.70;99.90
24664;DHT22;12791;50.992;13.788;2023-05-24T06:00:43;11.70;99.90
24664;DHT22;12791;50.992;13.788;2023-05-24T06:03:09;11.70;99.90
24664;DHT22;12791;50.992;13.788;2023-05-24T06:05:36;11.80;99.90
24664;DHT22;12791;50.992;13.788;2023-05-24T06:08:02;11.70;99.90
24664;DHT22;12791;50.992;13.788;2023-05-24T06:10:29;11.70;99.90
24664;DHT22;12791;50.992;13.788;2023-05-24T06:12:55;11.80;99.90
24664;DHT22;12791;50.992;13.788;2023-05-24T06:15:22;11.80;99.90
24664;DHT22;12791;50.992;13.788;2023-05-24T06:17:50;11.80;99.90
24664;DHT22;12791;50.992;13.788;2023-05-24T06:20:17;11.80;99.90
24664;DHT22;12791;50.992;13.788;2023-05-24T06:22:44;11.80;99.90
24664;DHT22;12791;50.992;13.788;2023-05-24T06:25:10;11.80;99.90
24664;DHT22;12791;50.992;13.788;2023-05-24T06:27:39;11.80;99.90
24664;DHT22;12791;50.992;13.788;2023-05-24T06:30:07;11.80;99.90
24664;DHT22;12791;50.992;13.788;2023-05-24T06:32:33;11.80;99.90
24664;DHT22;12791;50.992;13.788;2023-05-24T06:35:02;11.80;99.90
24664;DHT22;12791;50.992;13.788;2023-05-24T06:37:28;11.90;99.90
24664;DHT22;12791;50.992;13.788;2023-05-24T06:39:55;11.80;99.90
24664;DHT22;12791;50.992;13.788;2023-05-24T06:42:22;11.80;99.90
24664;DHT22;12791;50.992;13.788;2023-05-24T06:44:48;11.90;99.90
24664;DHT22;12791;50.992;13.788;2023-05-24T06:47:15;11.90;99.90
24664;DHT22;12791;50.992;13.788;2023-05-24T06:49:42;11.90;99.90
24664;DHT22;12791;50.992;13.788;2023-05-24T06:52:10;11.90;99.90
24664;DHT22;12791;50.992;13.788;2023-05-24T06:54:38;11.90;99.90
24664;DHT22;12791;50.992;13.788;2023-05-24T06:57:04;12.00;99.90
24664;DHT22;12791;50.992;13.788;2023-05-24T06:59:31;12.00;98.10
24664;DHT22;12791;50.992;13.788;2023-05-24T07:01:57;11.90;97.70
24664;DHT22;12791;50.992;13.788;2023-05-24T07:04:24;12.00;97.50
24664;DHT22;12791;50.992;13.788;2023-05-24T07:06:51;12.00;96.80
24664;DHT22;12791;50.992;13.788;2023-05-24T07:09:19;12.10;96.90
24664;DHT22;12791;50.992;13.788;2023-05-24T07:11:46;12.10;96.30
24664;DHT22;12791;50.992;13.788;2023-05-24T07:14:12;12.10;93.20
24664;DHT22;12791;50.992;13.788;2023-05-24T07:16:39;12.10;92.50
24664;DHT22;12791;50.992;13.788;2023-05-24T07:19:06;12.10;92.60
24664;DHT22;12791;50.992;13.788;2023-05-24T07:21:32;12.10;93.10
24664;DHT22;12791;50.992;13.788;2023-05-24T07:23:59;12.10;93.70
24664;DHT22;12791;50.992;13.788;2023-05-24T07:26:27;12.20;94.40
24664;DHT22;12791;50.992;13.788;2023-05-24T07:28:54;12.30;95.10
24664;DHT22;12791;50.992;13.788;2023-05-24T07:31:21;12.20;94.10
24664;DHT22;12791;50.992;13.788;2023-05-24T07:33:48;12.10;93.30
24664;DHT22;12791;50.992;13.788;2023-05-24T07:36:14;12.00;92.10
24664;DHT22;12791;50.992;13.788;2023-05-24T07:38:41;12.00;92.50
24664;DHT22;12791;50.992;13.788;2023-05-24T07:41:07;12.00;93.10
24664;DHT22;12791;50.992;13.788;2023-05-24T07:43:35;12.00;93.90
24664;DHT22;12791;50.992;13.788;2023-05-24T07:46:02;12.00;95.10
24664;DHT22;12791;50.992;13.788;2023-05-24T07:48:29;12.10;94.30
24664;DHT22;12791;50.992;13.788;2023-05-24T07:50:56;12.00;93.20
24664;DHT22;12791;50.992;13.788;2023-05-24T07:53:22;12.10;92.60
24664;DHT22;12791;50.992;13.788;2023-05-24T07:55:49;12.10;93.10
24664;DHT22;12791;50.992;13.788;2023-05-24T07:58:16;12.10;93.90
24664;DHT22;12791;50.992;13.788;2023-05-24T08:00:43;12.20;93.80
24664;DHT22;12791;50.992;13.788;2023-05-24T08:03:11;12.20;93.30
24664;DHT22;12791;50.992;13.788;2023-05-24T08:05:39;12.20;93.40
24664;DHT22;12791;50.992;13.788;2023-05-24T08:08:05;12.20;92.90
24664;DHT22;12791;50.992;13.788;2023-05-24T08:10:32;12.20;92.40
24664;DHT22;12791;50.992;13.788;2023-05-24T08:12:58;12.20;91.50
24664;DHT22;12791;50.992;13.788;2023-05-24T08:15:25;12.20;91.70
24664;DHT22;12791;50.992;13.788;2023-05-24T08:17:53;12.20;92.00
24664;DHT22;12791;50.992;13.788;2023-05-24T08:20:20;12.20;90.40
24664;DHT22;12791;50.992;13.788;2023-05-24T08:22:46;12.20;89.70
24664;DHT22;12791;50.992;13.788;2023-05-24T08:25:13;12.20;90.10
24664;DHT22;12791;50.992;13.788;2023-05-24T08:27:40;12.20;88.70
24664;DHT22;12791;50.992;13.788;2023-05-24T08:30:07;12.20;86.40
24664;DHT22;12791;50.992;13.788;2023-05-24T08:32:35;12.10;84.60
24664;DHT22;12791;50.992;13.788;2023-05-24T08:35:04;12.10;84.00
24664;DHT22;12791;50.992;13.788;2023-05-24T08:37:31;12.20;85.20
24664;DHT22;12791;50.992;13.788;2023-05-24T08:39:58;12.20;82.60
24664;DHT22;12791;50.992;13.788;2023-05-24T08:42:25;12.20;80.20
24664;DHT22;12791;50.992;13.788;2023-05-24T08:44:58;12.30;76.10
24664;DHT22;12791;50.992;13.788;2023-05-24T08:47:29;12.30;74.40
24664;DHT22;12791;50.992;13.788;2023-05-24T08:49:56;12.40;73.80
24664;DHT22;12791;50.992;13.788;2023-05-24T08:52:24;12.40;72.00
24664;DHT22;12791;50.992;13.788;2023-05-24T08:54:53;12.40;72.40
24664;DHT22;12791;50.992;13.788;2023-05-24T08:57:21;12.30;72.30
24664;DHT22;12791;50.992;13.788;2023-05-24T08:59:48;12.30;71.50
24664;DHT22;12791;50.992;13.788;2023-05-24T09:02:15;12.40;72.40
24664;DHT22;12791;50.992;13.788;2023-05-24T09:04:42;12.40;70.90
24664;DHT22;12791;50.992;13.788;2023-05-24T09:07:12;12.40;71.00
24664;DHT22;12791;50.992;13.788;2023-05-24T09:09:42;12.50;71.60
24664;DHT22;12791;50.992;13.788;2023-05-24T09:12:10;12.50;72.50
24664;DHT22;12791;50.992;13.788;2023-05-24T09:14:41;12.50;72.00
24664;DHT22;12791;50.992;13.788;2023-05-24T09:17:11;12.50;71.10
24664;DHT22;12791;50.992;13.788;2023-05-24T09:19:42;12.60;71.10
24664;DHT22;12791;50.992;13.788;2023-05-24T09:22:10;12.60;70.20
24664;DHT22;12791;50.992;13.788;2023-05-24T09:24:41;12.60;69.80
24664;DHT22;12791;50.992;13.788;2023-05-24T09:27:08;12.70;69.10
24664;DHT22;12791;50.992;13.788;2023-05-24T09:29:35;12.70;70.40
24664;DHT22;12791;50.992;13.788;2023-05-24T09:32:02;12.80;70.50
24664;DHT22;12791;50.992;13.788;2023-05-24T09:34:37;12.80;70.30
24664;DHT22;12791;50.992;13.788;2023-05-24T09:37:04;12.80;66.00
24664;DHT22;12791;50.992;13.788;2023-05-24T09:39:31;12.70;66.70
24664;DHT22;12791;50.992;13.788;2023-05-24T09:42:00;12.80;67.70
24664;DHT22;12791;50.992;13.788;2023-05-24T09:44:28;12.80;67.10
24664;DHT22;12791;50.992;13.788;2023-05-24T09:47:01;12.80;68.80
24664;DHT22;12791;50.992;13.788;2023-05-24T09:49:29;12.90;69.10
24664;DHT22;12791;50.992;13.788;2023-05-24T09:51:55;12.90;67.10
24664;DHT22;12791;50.992;13.788;2023-05-24T09:54:23;12.90;66.10
24664;DHT22;12791;50.992;13.788;2023-05-24T09:56:50;13.00;66.00
24664;DHT22;12791;50.992;13.788;2023-05-24T09:59:18;13.00;66.00
24664;DHT22;12791;50.992;13.788;2023-05-24T10:01:45;13.10;65.00
24664;DHT22;12791;50.992;13.788;2023-05-24T10:04:18;13.20;64.90
24664;DHT22;12791;50.992;13.788;2023-05-24T10:06:45;13.30;64.60
24664;DHT22;12791;50.992;13.788;2023-05-24T10:09:13;13.40;64.70
24664;DHT22;12791;50.992;13.788;2023-05-24T10:11:40;13.40;65.50
24664;DHT22;12791;50.992;13.788;2023-05-24T10:14:08;13.40;65.60
24664;DHT22;12791;50.992;13.788;2023-05-24T10:16:36;13.50;65.40
24664;DHT22;12791;50.992;13.788;2023-05-24T10:19:03;13.50;65.90
24664;DHT22;12791;50.992;13.788;2023-05-24T10:21:31;13.50;63.80
24664;DHT22;12791;50.992;13.788;2023-05-24T10:24:02;13.50;62.10
24664;DHT22;12791;50.992;13.788;2023-05-24T10:26:32;13.50;62.20
24664;DHT22;12791;50.992;13.788;2023-05-24T10:29:05;13.50;62.60
24664;DHT22;12791;50.992;13.788;2023-05-24T10:31:35;13.50;62.30
24664;DHT22;12791;50.992;13.788;2023-05-24T10:34:05;13.50;60.00
24664;DHT22;12791;50.992;13.788;2023-05-24T10:36:33;13.40;61.00
24664;DHT22;12791;50.992;13.788;2023-05-24T10:39:01;13.50;59.60
24664;DHT22;12791;50.992;13.788;2023-05-24T10:41:28;13.50;60.20
24664;DHT22;12791;50.992;13.788;2023-05-24T10:43:56;13.60;59.60
24664;DHT22;12791;50.992;13.788;2023-05-24T10:46:23;13.60;59.90
24664;DHT22;12791;50.992;13.788;2023-05-24T10:48:59;13.70;59.10
24664;DHT22;12791;50.992;13.788;2023-05-24T10:51:31;13.60;60.10
24664;DHT22;12791;50.992;13.788;2023-05-24T10:54:13;13.70;59.50
24664;DHT22;12791;50.992;13.788;2023-05-24T10:56:41;13.70;59.50
24664;DHT22;12791;50.992;13.788;2023-05-24T10:59:21;13.80;60.70
24664;DHT22;12791;50.992;13.788;2023-05-24T11:01:54;13.80;61.00
24664;DHT22;12791;50.992;13.788;2023-05-24T11:04:21;13.90;60.80
24664;DHT22;12791;50.992;13.788;2023-05-24T11:06:53;14.00;60.00
24664;DHT22;12791;50.992;13.788;2023-05-24T11:09:20;14.10;59.30
24664;DHT22;12791;50.992;13.788;2023-05-24T11:11:48;14.20;59.00
24664;DHT22;12791;50.992;13.788;2023-05-24T11:14:18;14.20;59.20
24664;DHT22;12791;50.992;13.788;2023-05-24T11:16:45;14.20;59.60
24664;DHT22;12791;50.992;13.788;2023-05-24T11:19:16;14.10;57.70
24664;DHT22;12791;50.992;13.788;2023-05-24T11:21:43;14.10;56.80
24664;DHT22;12791;50.992;13.788;2023-05-24T11:24:13;14.10;57.10
24664;DHT22;12791;50.992;13.788;2023-05-24T11:26:41;14.00;57.10
24664;DHT22;12791;50.992;13.788;2023-05-24T11:29:08;14.00;57.20
24664;DHT22;12791;50.992;13.788;2023-05-24T11:31:36;14.00;59.20
24664;DHT22;12791;50.992;13.788;2023-05-24T11:34:04;14.00;58.90
24664;DHT22;12791;50.992;13.788;2023-05-24T11:36:32;14.00;59.30
24664;DHT22;12791;50.992;13.788;2023-05-24T11:39:00;14.00;57.50
24664;DHT22;12791;50.992;13.788;2023-05-24T11:41:34;14.10;58.10
24664;DHT22;12791;50.992;13.788;2023-05-24T11:44:01;14.10;56.70
24664;DHT22;12791;50.992;13.788;2023-05-24T11:46:28;14.30;58.20
24664;DHT22;12791;50.992;13.788;2023-05-24T11:48:55;14.40;57.80
24664;DHT22;12791;50.992;13.788;2023-05-24T11:51:26;14.50;56.80
24664;DHT22;12791;50.992;13.788;2023-05-24T11:53:54;14.60;56.00
24664;DHT22;12791;50.992;13.788;2023-05-24T11:56:20;14.60;56.90
24664;DHT22;12791;50.992;13.788;2023-05-24T11:58:49;14.70;56.20
24664;DHT22;12791;50.992;13.788;2023-05-24T12:01:23;14.70;56.10
24664;DHT22;12791;50.992;13.788;2023-05-24T12:03:50;14.70;55.90
24664;DHT22;12791;50.992;13.788;2023-05-24T12:06:17;14.70;56.10
24664;DHT22;12791;50.992;13.788;2023-05-24T12:08:44;14.60;54.90
24664;DHT22;12791;50.992;13.788;2023-05-24T12:11:11;14.60;55.40
24664;DHT22;12791;50.992;13.788;2023-05-24T12:13:38;14.60;54.70
24664;DHT22;12791;50.992;13.788;2023-05-24T12:16:06;14.60;54.70
24664;DHT22;12791;50.992;13.788;2023-05-24T12:18:33;14.70;54.70
24664;DHT22;12791;50.992;13.788;2023-05-24T12:21:00;14.70;54.50
24664;DHT22;12791;50.992;13.788;2023-05-24T12:23:26;14.80;54.50
24664;DHT22;12791;50.992;13.788;2023-05-24T12:25:59;14.90;54.90
24664;DHT22;12791;50.992;13.788;2023-05-24T12:28:26;14.90;54.20
24664;DHT22;12791;50.992;13.788;2023-05-24T12:30:53;14.90;54.90
24664;DHT22;12791;50.992;13.788;2023-05-24T12:33:22;14.90;54.20
24664;DHT22;12791;50.992;13.788;2023-05-24T12:35:50;15.00;52.90
24664;DHT22;12791;50.992;13.788;2023-05-24T12:38:18;15.00;51.90
24664;DHT22;12791;50.992;13.788;2023-05-24T12:40:49;15.00;51.90
24664;DHT22;12791;50.992;13.788;2023-05-24T12:43:18;15.00;52.00
24664;DHT22;12791;50.992;13.788;2023-05-24T12:45:45;15.00;52.20
24664;DHT22;12791;50.992;13.788;2023-05-24T12:48:12;15.00;53.60
24664;DHT22;12791;50.992;13.788;2023-05-24T12:50:40;14.90;54.00
24664;DHT22;12791;50.992;13.788;2023-05-24T12:53:07;14.90;54.10
24664;DHT22;12791;50.992;13.788;2023-05-24T12:55:34;14.90;53.40
24664;DHT22;12791;50.992;13.788;2023-05-24T12:58:01;15.10;52.40
24664;DHT22;12791;50.992;13.788;2023-05-24T13:00:30;15.10;52.10
24664;DHT22;12791;50.992;13.788;2023-05-24T13:02:57;15.10;52.10
24664;DHT22;12791;50.992;13.788;2023-05-24T13:05:25;15.10;52.30
24664;DHT22;12791;50.992;13.788;2023-05-24T13:07:54;15.10;52.60
24664;DHT22;12791;50.992;13.788;2023-05-24T13:10:22;15.20;53.00
24664;DHT22;12791;50.992;13.788;2023-05-24T13:12:48;15.20;51.20
24664;DHT22;12791;50.992;13.788;2023-05-24T13:15:15;15.30;52.20
24664;DHT22;12791;50.992;13.788;2023-05-24T13:17:43;15.30;52.30
24664;DHT22;12791;50.992;13.788;2023-05-24T13:20:11;15.40;52.30
24664;DHT22;12791;50.992;13.788;2023-05-24T13:22:38;15.60;52.50
24664;DHT22;12791;50.992;13.788;2023-05-24T13:25:07;15.70;51.90
24664;DHT22;12791;50.992;13.788;2023-05-24T13:27:34;15.80;51.60
24664;DHT22;12791;50.992;13.788;2023-05-24T13:30:01;15.90;51.30
24664;DHT22;12791;50.992;13.788;2023-05-24T13:32:30;16.00;49.80
24664;DHT22;12791;50.992;13.788;2023-05-24T13:34:57;16.00;48.70
24664;DHT22;12791;50.992;13.788;2023-05-24T13:37:24;16.00;48.80
24664;DHT22;12791;50.992;13.788;2023-05-24T13:39:52;16.10;48.50
24664;DHT22;12791;50.992;13.788;2023-05-24T13:42:20;16.10;48.50
24664;DHT22;12791;50.992;13.788;2023-05-24T13:44:46;16.10;48.80
24664;DHT22;12791;50.992;13.788;2023-05-24T13:47:13;16.10;48.90
24664;DHT22;12791;50.992;13.788;2023-05-24T13:49:44;16.20;49.10
24664;DHT22;12791;50.992;13.788;2023-05-24T13:52:10;16.20;48.80
24664;DHT22;12791;50.992;13.788;2023-05-24T13:54:37;16.40;49.40
24664;DHT22;12791;50.992;13.788;2023-05-24T13:57:04;16.50;49.20
24664;DHT22;12791;50.992;13.788;2023-05-24T13:59:32;16.60;49.20
24664;DHT22;12791;50.992;13.788;2023-05-24T14:01:58;16.60;48.10
24664;DHT22;12791;50.992;13.788;2023-05-24T14:04:25;16.50;48.40
24664;DHT22;12791;50.992;13.788;2023-05-24T14:06:52;16.60;49.00
24664;DHT22;12791;50.992;13.788;2023-05-24T14:09:18;16.60;47.90
24664;DHT22;12791;50.992;13.788;2023-05-24T14:11:46;16.60;47.90
24664;DHT22;12791;50.992;13.788;2023-05-24T14:14:13;16.50;48.20
24664;DHT22;12791;50.992;13.788;2023-05-24T14:16:41;16.50;47.70
24664;DHT22;12791;50.992;13.788;2023-05-24T14:19:07;16.60;47.90
24664;DHT22;12791;50.992;13.788;2023-05-24T14:21:34;16.60;46.60
24664;DHT22;12791;50.992;13.788;2023-05-24T14:24:01;16.70;47.50
24664;DHT22;12791;50.992;13.788;2023-05-24T14:26:28;16.80;46.90
24664;DHT22;12791;50.992;13.788;2023-05-24T14:28:55;17.00;46.90
24664;DHT22;12791;50.992;13.788;2023-05-24T14:31:22;17.10;46.70
24664;DHT22;12791;50.992;13.788;2023-05-24T14:33:50;17.20;45.70
24664;DHT22;12791;50.992;13.788;2023-05-24T14:36:16;17.30;45.40
24664;DHT22;12791;50.992;13.788;2023-05-24T14:38:43;17.40;44.50
24664;DHT22;12791;50.992;13.788;2023-05-24T14:41:09;17.50;44.50
24664;DHT22;12791;50.992;13.788;2023-05-24T14:43:36;17.50;44.60
24664;DHT22;12791;50.992;13.788;2023-05-24T14:46:04;17.60;44.70
24664;DHT22;12791;50.992;13.788;2023-05-24T14:48:31;17.70;44.00
24664;DHT22;12791;50.992;13.788;2023-05-24T14:50:59;17.70;44.30
24664;DHT22;12791;50.992;13.788;2023-05-24T14:53:25;17.80;44.80
24664;DHT22;12791;50.992;13.788;2023-05-24T14:55:52;17.90;45.30
24664;DHT22;12791;50.992;13.788;2023-05-24T14:58:18;17.80;44.40
24664;DHT22;12791;50.992;13.788;2023-05-24T15:00:45;17.90;44.90
24664;DHT22;12791;50.992;13.788;2023-05-24T15:03:12;17.90;44.90
24664;DHT22;12791;50.992;13.788;2023-05-24T15:05:39;17.90;44.60
24664;DHT22;12791;50.992;13.788;2023-05-24T15:08:08;17.80;45.10
24664;DHT22;12791;50.992;13.788;2023-05-24T15:10:35;17.90;44.70
24664;DHT22;12791;50.992;13.788;2023-05-24T15:13:03;17.90;44.40
24664;DHT22;12791;50.992;13.788;2023-05-24T15:15:30;17.90;43.70
24664;DHT22;12791;50.992;13.788;2023-05-24T15:17:56;17.80;44.10